Time;durP1;ratioP1;P1;durP2;ratioP2;P2;SDS_P1;SDS_P2;PMS_P1;PMS_P2;Temp;Humidity;BMP_temperature;BMP_pressure;BME280_temperature;BME280_humidity;BME280_pressure;Samples;Min_cycle;Max_cycle;Signal;HPM_P1;HPM_P2
2023/09/19 00:00:47;;;;;;;7.13;2.10;;;13.90;99.90;;;;;;7370393;19;20014;-65
2023/09/19 00:03:13;;;;;;;10.18;2.85;;;13.90;99.90;;;;;;7367872;19;20473;-66
2023/09/19 00:05:42;;;;;;;9.07;2.30;;;13.80;99.90;;;;;;7370423;19;20066;-65
2023/09/19 00:08:08;;;;;;;8.90;2.40;;;13.70;99.90;;;;;;7368348;19;20482;-65
2023/09/19 00:10:39;;;;;;;10.88;2.20;;;13.70;99.90;;;;;;7369247;19;20027;-66
2023/09/19 00:13:06;;;;;;;8.50;2.20;;;13.60;99.90;;;;;;7369439;19;20875;-65
2023/09/19 00:15:41;;;;;;;6.65;2.20;;;13.50;99.90;;;;;;7366370;19;20078;-65
2023/09/19 00:18:08;;;;;;;9.18;2.33;;;13.50;99.90;;;;;;7369728;19;20085;-65
2023/09/19 00:20:38;;;;;;;9.68;2.53;;;13.50;99.90;;;;;;7369578;19;20014;-65
2023/09/19 00:23:08;;;;;;;9.18;2.10;;;13.40;99.90;;;;;;7372027;19;20019;-65
2023/09/19 00:25:35;;;;;;;10.35;3.42;;;13.40;99.90;;;;;;7371963;19;20598;-65
2023/09/19 00:28:02;;;;;;;14.90;2.83;;;13.30;99.90;;;;;;7371440;19;20019;-66
2023/09/19 00:30:28;;;;;;;13.70;2.95;;;13.30;99.90;;;;;;7367802;19;20053;-65
2023/09/19 00:32:55;;;;;;;14.52;2.90;;;13.30;99.90;;;;;;7370688;19;20569;-65
2023/09/19 00:35:24;;;;;;;9.63;2.63;;;13.20;99.90;;;;;;7371533;19;20372;-65
2023/09/19 00:37:52;;;;;;;9.80;2.65;;;13.20;99.90;;;;;;7371071;19;20564;-65
2023/09/19 00:40:18;;;;;;;9.80;2.85;;;13.20;99.90;;;;;;7370078;19;20018;-65
2023/09/19 00:42:46;;;;;;;10.27;3.10;;;13.20;99.90;;;;;;7369114;19;20094;-65
2023/09/19 00:45:13;;;;;;;11.82;2.80;;;13.20;99.90;;;;;;7369509;19;20026;-65
2023/09/19 00:47:45;;;;;;;9.35;2.92;;;13.20;99.90;;;;;;7369583;19;20010;-65
2023/09/19 00:50:14;;;;;;;;;;;13.20;99.90;;;;;;7367500;19;20062;-64
2023/09/19 00:52:43;;;;;;;17.00;2.92;;;13.20;99.90;;;;;;7368378;19;20317;-64
2023/09/19 00:55:14;;;;;;;14.07;2.58;;;13.20;99.90;;;;;;7367535;19;20025;-65
2023/09/19 00:57:40;;;;;;;10.23;2.47;;;13.20;99.90;;;;;;7369449;19;20018;-65
2023/09/19 01:00:15;;;;;;;13.02;3.22;;;13.20;99.90;;;;;;7369558;19;20052;-65
2023/09/19 01:03:02;;;;;;;14.95;3.50;;;13.30;99.90;;;;;;7368046;19;20035;-65
2023/09/19 01:05:29;;;;;;;12.63;3.00;;;13.20;99.90;;;;;;7369583;19;20018;-65
2023/09/19 01:07:56;;;;;;;13.25;2.65;;;13.20;99.90;;;;;;7369722;19;20374;-66
2023/09/19 01:10:24;;;;;;;11.82;3.70;;;13.20;99.90;;;;;;7367533;19;20015;-65
2023/09/19 01:12:53;;;;;;;12.07;2.72;;;13.20;99.90;;;;;;7368918;19;20082;-65
2023/09/19 01:15:40;;;;;;;10.00;2.72;;;13.20;99.90;;;;;;7368077;19;20618;-65
2023/09/19 01:18:12;;;;;;;11.30;2.75;;;13.30;99.90;;;;;;7367569;19;20790;-64
2023/09/19 01:21:00;;;;;;;12.25;2.88;;;13.30;99.90;;;;;;7368189;19;20018;-64
2023/09/19 01:23:48;;;;;;;13.13;2.88;;;13.30;99.90;;;;;;7365577;19;20378;-64
2023/09/19 01:26:37;;;;;;;14.70;3.33;;;13.30;99.90;;;;;;7367917;19;20018;-59
2023/09/19 01:29:44;;;;;;;15.82;3.63;;;13.30;99.90;;;;;;7366818;19;20034;-59
2023/09/19 01:32:14;;;;;;;9.73;2.92;;;13.30;99.90;;;;;;7367009;19;20015;-65
2023/09/19 01:34:48;;;;;;;14.68;2.88;;;13.30;99.90;;;;;;7365743;19;20517;-59
2023/09/19 01:37:26;;;;;;;14.10;2.90;;;13.30;99.90;;;;;;7371768;19;20478;-59
2023/09/19 01:40:08;;;;;;;10.77;3.30;;;13.30;99.90;;;;;;7369744;19;20469;-59
2023/09/19 01:42:59;;;;;;;14.57;3.53;;;13.20;99.90;;;;;;7365393;19;20018;-58
2023/09/19 01:46:05;;;;;;;10.38;3.35;;;13.20;99.90;;;;;;7368560;19;20022;-58
2023/09/19 01:48:46;;;;;;;18.63;3.78;;;13.20;99.90;;;;;;7370513;19;20010;-58
2023/09/19 01:51:20;;;;;;;8.57;2.95;;;13.10;99.90;;;;;;7371603;19;20102;-64
2023/09/19 01:54:26;;;;;;;17.55;3.55;;;13.10;99.90;;;;;;7369041;19;20028;-59
2023/09/19 01:57:06;;;;;;;11.82;3.92;;;13.00;99.90;;;;;;7367290;19;20497;-65
2023/09/19 01:59:40;;;;;;;12.77;3.95;;;13.00;99.90;;;;;;7368678;19;20022;-65
2023/09/19 02:02:08;;;;;;;12.73;3.60;;;13.00;99.90;;;;;;7364320;19;20542;-59
2023/09/19 02:04:35;;;;;;;12.55;3.65;;;12.90;99.90;;;;;;7369122;19;20559;-59
2023/09/19 02:07:02;;;;;;;15.85;3.80;;;12.90;99.90;;;;;;7373094;19;20037;-59
2023/09/19 02:09:28;;;;;;;14.07;3.92;;;12.90;99.90;;;;;;7360223;19;20074;-59
2023/09/19 02:11:59;;;;;;;10.40;3.10;;;12.90;99.90;;;;;;7367143;19;20019;-59
2023/09/19 02:14:25;;;;;;;11.25;3.70;;;12.90;99.90;;;;;;7364058;19;20378;-58
2023/09/19 02:16:51;;;;;;;11.00;2.90;;;12.90;99.90;;;;;;7366320;19;20608;-59
2023/09/19 02:19:17;;;;;;;19.25;4.63;;;12.90;99.90;;;;;;7366866;19;20023;-59
2023/09/19 02:21:44;;;;;;;14.40;3.90;;;12.90;99.90;;;;;;7366422;19;20018;-59
2023/09/19 02:24:10;;;;;;;12.98;3.60;;;12.90;99.90;;;;;;7363825;19;20022;-65
2023/09/19 02:26:36;;;;;;;12.15;3.88;;;13.00;99.90;;;;;;7365767;19;20026;-65
2023/09/19 02:29:04;;;;;;;10.65;3.03;;;12.90;99.90;;;;;;7368845;19;20018;-60
2023/09/19 02:31:31;;;;;;;10.27;3.75;;;12.90;99.90;;;;;;7365339;19;20421;-59
2023/09/19 02:33:57;;;;;;;13.88;3.58;;;12.90;99.90;;;;;;7367001;19;20018;-59
2023/09/19 02:36:23;;;;;;;13.20;4.20;;;12.90;99.90;;;;;;7363452;19;20014;-60
2023/09/19 02:38:50;;;;;;;11.88;3.55;;;12.90;99.90;;;;;;7365439;19;20015;-60
2023/09/19 02:41:16;;;;;;;10.82;3.55;;;12.90;99.90;;;;;;7364033;19;20478;-59
2023/09/19 02:43:42;;;;;;;12.90;3.33;;;12.90;99.90;;;;;;7365720;19;20486;-59
2023/09/19 02:46:11;;;;;;;11.50;3.35;;;12.90;99.90;;;;;;7375894;19;20089;-60
2023/09/19 02:48:38;;;;;;;14.30;3.35;;;12.90;99.90;;;;;;7364638;19;20450;-59
2023/09/19 02:51:04;;;;;;;12.63;3.85;;;13.00;99.90;;;;;;7373976;19;20043;-58
2023/09/19 02:53:31;;;;;;;13.25;3.33;;;13.00;99.90;;;;;;7373155;19;20046;-59
2023/09/19 02:55:58;;;;;;;11.57;3.65;;;13.00;99.90;;;;;;7372157;19;20014;-58
2023/09/19 02:58:27;;;;;;;12.35;3.25;;;13.00;99.90;;;;;;7370463;19;20501;-59
2023/09/19 03:00:55;;;;;;;14.75;3.92;;;12.90;99.90;;;;;;7371526;19;20018;-59
2023/09/19 03:03:21;;;;;;;7.30;3.22;;;12.90;99.90;;;;;;7371972;19;20366;-59
2023/09/19 03:05:47;;;;;;;11.88;3.50;;;12.90;99.90;;;;;;7374243;19;20501;-59
2023/09/19 03:08:16;;;;;;;8.48;3.53;;;12.90;99.90;;;;;;7373134;19;20392;-59
2023/09/19 03:10:45;;;;;;;15.02;3.10;;;12.90;99.90;;;;;;7373762;19;20377;-59
2023/09/19 03:13:12;;;;;;;13.05;3.38;;;12.90;99.90;;;;;;7375104;19;20026;-59
2023/09/19 03:15:44;;;;;;;9.68;3.25;;;12.90;99.90;;;;;;7369168;19;21225;-59
2023/09/19 03:18:11;;;;;;;10.40;2.83;;;12.90;99.90;;;;;;7373947;19;20022;-60
2023/09/19 03:20:38;;;;;;;9.00;2.92;;;12.90;99.90;;;;;;7372744;19;20505;-59
2023/09/19 03:23:06;;;;;;;14.60;3.20;;;12.80;99.90;;;;;;7373391;19;20018;-60
2023/09/19 03:25:35;;;;;;;13.00;3.08;;;12.80;99.90;;;;;;7368505;19;20029;-59
2023/09/19 03:28:05;;;;;;;9.88;2.85;;;12.80;99.90;;;;;;7371837;19;20568;-58
2023/09/19 03:30:33;;;;;;;11.65;3.28;;;12.70;99.90;;;;;;7373552;19;20030;-59
2023/09/19 03:33:00;;;;;;;11.70;2.92;;;12.70;99.90;;;;;;7372257;19;20018;-59
2023/09/19 03:35:27;;;;;;;10.05;3.03;;;12.70;99.90;;;;;;7372943;19;20558;-59
2023/09/19 03:37:53;;;;;;;8.25;2.95;;;12.70;99.90;;;;;;7375155;19;20015;-58
2023/09/19 03:40:23;;;;;;;8.70;2.80;;;12.80;99.90;;;;;;7373109;19;21668;-59
2023/09/19 03:42:50;;;;;;;11.85;3.25;;;12.80;99.90;;;;;;7373416;19;20588;-59
2023/09/19 03:45:18;;;;;;;9.10;2.95;;;12.90;99.90;;;;;;7367699;19;20367;-60
2023/09/19 03:47:50;;;;;;;7.47;3.22;;;12.90;99.90;;;;;;7372813;19;20029;-59
2023/09/19 03:50:19;;;;;;;12.88;3.15;;;13.00;99.90;;;;;;7371731;19;20450;-59
2023/09/19 03:52:45;;;;;;;11.43;3.10;;;13.00;99.90;;;;;;7370990;19;20019;-59
2023/09/19 03:55:12;;;;;;;13.38;3.38;;;13.00;99.90;;;;;;7369643;19;20347;-65
2023/09/19 03:57:39;;;;;;;11.88;3.20;;;13.00;99.90;;;;;;7371668;19;20049;-59
2023/09/19 04:00:11;;;;;;;10.68;3.03;;;13.00;99.90;;;;;;7375135;19;20033;-60
2023/09/19 04:02:41;;;;;;;13.05;3.30;;;13.00;99.90;;;;;;7369152;19;20389;-65
2023/09/19 04:05:08;;;;;;;14.65;2.90;;;12.90;99.90;;;;;;7370936;19;20073;-59
2023/09/19 04:07:35;;;;;;;10.98;3.45;;;13.00;99.90;;;;;;7369468;19;20429;-59
2023/09/19 04:10:04;;;;;;;9.77;2.92;;;13.00;99.90;;;;;;7371419;19;20023;-59
2023/09/19 04:12:32;;;;;;;12.00;3.72;;;13.10;99.90;;;;;;7370448;19;20045;-58
2023/09/19 04:14:58;;;;;;;10.70;2.92;;;13.20;99.90;;;;;;7370970;19;20031;-58
2023/09/19 04:17:27;;;;;;;11.80;2.90;;;13.20;99.90;;;;;;7371678;19;20384;-59
2023/09/19 04:19:54;;;;;;;14.43;3.67;;;13.30;99.90;;;;;;7372285;19;20763;-58
2023/09/19 04:22:20;;;;;;;9.55;3.30;;;13.20;99.90;;;;;;7372120;19;20026;-59
2023/09/19 04:24:46;;;;;;;9.00;3.58;;;13.30;99.90;;;;;;7368183;19;20019;-59
2023/09/19 04:27:14;;;;;;;12.32;3.40;;;13.30;99.90;;;;;;7370597;19;20042;-58
2023/09/19 04:29:41;;;;;;;11.50;3.38;;;13.30;99.90;;;;;;7368106;19;20684;-60
2023/09/19 04:32:29;;;;;;;10.30;2.95;;;13.20;99.90;;;;;;7370197;19;20015;-59
2023/09/19 04:34:59;;;;;;;10.90;3.03;;;13.30;99.90;;;;;;7365988;19;20421;-60
2023/09/19 04:37:26;;;;;;;12.27;3.35;;;13.30;99.90;;;;;;7370158;19;20018;-57
2023/09/19 04:40:12;;;;;;;14.18;3.67;;;13.40;99.90;;;;;;7371767;19;20018;-58
2023/09/19 04:42:41;;;;;;;16.80;3.72;;;13.40;99.90;;;;;;7370594;19;20026;-60
2023/09/19 04:45:11;;;;;;;14.57;3.60;;;13.50;99.90;;;;;;7371197;19;20045;-58
2023/09/19 04:47:38;;;;;;;12.00;3.40;;;13.50;99.90;;;;;;7368259;19;20809;-59
2023/09/19 04:50:13;;;;;;;10.90;2.88;;;13.50;99.90;;;;;;7374148;19;20342;-58
2023/09/19 04:52:45;;;;;;;13.95;3.42;;;13.50;99.90;;;;;;7369255;19;20481;-58
2023/09/19 04:55:19;;;;;;;10.73;3.08;;;13.50;99.90;;;;;;7371116;19;20382;-59
2023/09/19 04:57:50;;;;;;;12.65;3.00;;;13.50;99.90;;;;;;7369282;19;20492;-60
2023/09/19 05:00:23;;;;;;;11.20;3.45;;;13.50;99.90;;;;;;7371502;19;20390;-59
2023/09/19 05:02:56;;;;;;;13.85;3.50;;;13.60;99.90;;;;;;7370785;19;20018;-59
2023/09/19 05:05:23;;;;;;;12.60;2.97;;;13.60;99.90;;;;;;7369874;19;20078;-58
2023/09/19 05:07:51;;;;;;;15.57;3.63;;;13.50;99.90;;;;;;7367230;19;20020;-59
2023/09/19 05:10:20;;;;;;;22.60;4.50;;;13.60;99.90;;;;;;7370581;19;20034;-58
2023/09/19 05:13:09;;;;;;;13.70;3.38;;;13.60;99.90;;;;;;7370180;19;20025;-66
2023/09/19 05:15:35;;;;;;;17.65;3.97;;;13.70;99.90;;;;;;7366519;19;20022;-66
2023/09/19 05:18:03;;;;;;;13.15;3.13;;;13.70;99.90;;;;;;7371688;19;20114;-66
2023/09/19 05:20:33;;;;;;;11.70;3.30;;;13.60;99.90;;;;;;7370455;19;20018;-66
2023/09/19 05:23:20;;;;;;;12.30;3.10;;;13.60;99.90;;;;;;7371627;19;20011;-66
2023/09/19 05:25:47;;;;;;;12.63;3.35;;;13.60;99.90;;;;;;7368102;19;20025;-66
2023/09/19 05:28:14;;;;;;;10.70;2.85;;;13.60;99.90;;;;;;7370547;19;20014;-66
2023/09/19 05:30:43;;;;;;;12.13;3.70;;;13.60;99.90;;;;;;7369324;19;20018;-66
2023/09/19 05:33:09;;;;;;;13.70;3.45;;;13.50;99.90;;;;;;7370176;19;20035;-66
2023/09/19 05:35:41;;;;;;;12.13;3.38;;;13.50;99.90;;;;;;7367108;19;20445;-66
2023/09/19 05:38:12;;;;;;;12.63;2.92;;;13.50;99.90;;;;;;7370926;19;20425;-66
2023/09/19 05:40:42;;;;;;;12.70;3.35;;;13.50;99.90;;;;;;7365796;19;20489;-65
2023/09/19 05:43:08;;;;;;;9.85;3.17;;;13.50;99.90;;;;;;7365903;19;20053;-65
2023/09/19 05:45:36;;;;;;;13.02;3.33;;;13.50;99.90;;;;;;7365935;19;20018;-67
2023/09/19 05:48:16;;;;;;;12.50;3.05;;;13.40;99.90;;;;;;7366363;19;20026;-66
2023/09/19 05:50:43;;;;;;;13.65;2.97;;;13.30;99.90;;;;;;7367812;19;20062;-67
2023/09/19 05:53:33;;;;;;;15.10;3.10;;;13.30;99.90;;;;;;7364933;19;20011;-65
2023/09/19 05:56:02;;;;;;;11.45;3.30;;;13.20;99.90;;;;;;7363485;19;20058;-62
2023/09/19 05:58:28;;;;;;;17.48;4.18;;;13.20;99.90;;;;;;7365256;19;20018;-65
2023/09/19 06:00:57;;;;;;;12.25;3.33;;;13.30;99.90;;;;;;7364721;19;20021;-65
2023/09/19 06:03:23;;;;;;;9.77;2.83;;;13.20;99.90;;;;;;7363961;19;20489;-65
2023/09/19 06:05:51;;;;;;;13.18;3.17;;;13.30;99.90;;;;;;7366569;19;20656;-65
2023/09/19 06:08:17;;;;;;;13.15;3.72;;;13.30;99.90;;;;;;7366361;19;20022;-65
2023/09/19 06:10:43;;;;;;;11.80;2.80;;;13.30;99.90;;;;;;7365658;19;20015;-66
2023/09/19 06:13:10;;;;;;;13.65;3.05;;;13.40;99.90;;;;;;7368988;19;20389;-66
2023/09/19 06:15:36;;;;;;;11.73;3.20;;;13.50;99.90;;;;;;7367956;19;20015;-65
2023/09/19 06:18:04;;;;;;;12.40;3.10;;;13.50;99.90;;;;;;7368988;19;20801;-66
2023/09/19 06:20:32;;;;;;;10.00;2.75;;;13.60;99.90;;;;;;7374864;19;20020;-65
2023/09/19 06:23:01;;;;;;;11.88;2.38;;;13.70;99.90;;;;;;7372550;19;20020;-61
2023/09/19 06:25:27;;;;;;;12.25;3.30;;;13.80;99.90;;;;;;7373930;19;20026;-66
2023/09/19 06:27:54;;;;;;;11.02;2.92;;;13.90;99.90;;;;;;7373675;19;20029;-66
2023/09/19 06:30:26;;;;;;;13.18;3.20;;;13.90;99.90;;;;;;7374932;19;20057;-59
2023/09/19 06:32:56;;;;;;;11.38;3.05;;;14.00;99.90;;;;;;7373085;19;20019;-59
2023/09/19 06:35:23;;;;;;;10.55;2.80;;;14.00;99.90;;;;;;7378908;19;20447;-59
2023/09/19 06:37:50;;;;;;;12.88;3.20;;;13.90;99.90;;;;;;7370852;19;20118;-58
2023/09/19 06:40:17;;;;;;;12.70;2.85;;;13.90;99.90;;;;;;7377903;19;20018;-59
2023/09/19 06:42:45;;;;;;;10.68;3.10;;;13.80;99.90;;;;;;7371727;19;20442;-59
2023/09/19 06:45:13;;;;;;;12.15;3.30;;;13.70;99.90;;;;;;7374262;19;20018;-59
2023/09/19 06:47:40;;;;;;;8.85;3.45;;;13.70;99.90;;;;;;7368305;19;20018;-58
2023/09/19 06:50:12;;;;;;;15.35;3.70;;;13.70;99.90;;;;;;7376965;19;20015;-59
2023/09/19 06:52:41;;;;;;;11.40;2.40;;;13.70;99.90;;;;;;7373198;19;20018;-65
2023/09/19 06:55:09;;;;;;;13.57;3.63;;;13.70;99.90;;;;;;7375115;19;20592;-63
2023/09/19 06:57:36;;;;;;;14.80;4.13;;;13.70;99.90;;;;;;7373564;19;20096;-66
2023/09/19 07:00:08;;;;;;;10.88;2.80;;;13.80;99.90;;;;;;7376309;19;20014;-66
2023/09/19 07:02:38;;;;;;;12.55;2.67;;;13.90;99.90;;;;;;7373220;19;20021;-66
2023/09/19 07:05:05;;;;;;;11.30;3.22;;;14.20;99.90;;;;;;7372367;19;20029;-66
2023/09/19 07:07:34;;;;;;;7.40;2.33;;;14.60;99.90;;;;;;7365714;19;20493;-65
2023/09/19 07:10:10;;;;;;;10.65;2.55;;;14.80;99.90;;;;;;7370515;19;20040;-66
2023/09/19 07:12:37;;;;;;;10.30;3.38;;;15.10;99.90;;;;;;7370083;19;20039;-65
2023/09/19 07:15:05;;;;;;;11.40;2.53;;;15.50;99.90;;;;;;7372151;19;20018;-66
2023/09/19 07:17:33;;;;;;;12.30;3.03;;;15.70;99.90;;;;;;7369143;19;20010;-64
2023/09/19 07:20:07;;;;;;;10.50;3.33;;;16.10;99.90;;;;;;7369152;19;20022;-66
2023/09/19 07:22:34;;;;;;;13.23;3.10;;;16.10;99.90;;;;;;7372659;19;20557;-66
2023/09/19 07:25:21;;;;;;;12.18;3.08;;;16.20;99.90;;;;;;7374947;19;20014;-67
2023/09/19 07:27:47;;;;;;;11.48;3.08;;;16.20;99.90;;;;;;7372332;19;20314;-66
2023/09/19 07:30:14;;;;;;;11.18;2.67;;;16.10;99.90;;;;;;7371582;19;20007;-65
2023/09/19 07:33:02;;;;;;;10.98;3.13;;;15.80;99.90;;;;;;7374024;19;20457;-66
2023/09/19 07:35:28;;;;;;;12.98;3.13;;;15.50;99.90;;;;;;7368061;19;20010;-66
2023/09/19 07:37:56;;;;;;;15.15;5.65;;;15.20;99.90;;;;;;7372600;19;20559;-65
2023/09/19 07:40:23;;;;;;;9.65;3.00;;;15.00;99.90;;;;;;7371697;19;20046;-66
2023/09/19 07:42:52;;;;;;;11.88;2.67;;;14.90;99.90;;;;;;7375036;19;20375;-65
2023/09/19 07:45:18;;;;;;;13.65;3.13;;;14.80;99.90;;;;;;7365856;19;20010;-61
2023/09/19 07:47:49;;;;;;;15.20;3.53;;;14.80;99.90;;;;;;7371354;19;20020;-66
2023/09/19 07:50:19;;;;;;;11.67;3.40;;;14.80;99.90;;;;;;7372479;19;20019;-65
2023/09/19 07:52:53;;;;;;;15.25;3.45;;;14.80;99.90;;;;;;7369832;19;20521;-65
2023/09/19 07:55:25;;;;;;;9.82;2.85;;;14.80;99.90;;;;;;7374889;19;20034;-65
2023/09/19 07:58:12;;;;;;;10.07;3.28;;;15.00;99.90;;;;;;7370161;19;20014;-65
2023/09/19 08:00:39;;;;;;;12.68;3.15;;;15.00;99.90;;;;;;7373064;19;20387;-65
2023/09/19 08:03:08;;;;;;;9.40;3.17;;;15.20;99.90;;;;;;7368500;19;20045;-62
2023/09/19 08:05:36;;;;;;;11.85;3.28;;;15.60;99.90;;;;;;7369564;19;20025;-65
2023/09/19 08:08:03;;;;;;;17.75;3.47;;;15.80;99.90;;;;;;7369432;19;20026;-66
2023/09/19 08:10:35;;;;;;;12.77;3.00;;;16.10;99.90;;;;;;7371910;19;20549;-59
2023/09/19 08:13:02;;;;;;;;;;;16.20;99.90;;;;;;7371232;19;20417;-61
2023/09/19 08:15:28;;;;;;;12.65;2.70;;;16.00;99.90;;;;;;7371090;19;19990;-61
2023/09/19 08:17:56;;;;;;;9.43;3.10;;;15.80;99.90;;;;;;7371161;19;20026;-60
2023/09/19 08:20:23;;;;;;;10.10;2.70;;;15.70;99.90;;;;;;7372142;19;20097;-61
2023/09/19 08:22:52;;;;;;;10.63;2.95;;;15.50;99.90;;;;;;7372478;19;20450;-62
2023/09/19 08:25:19;;;;;;;11.38;3.20;;;15.50;99.90;;;;;;7371811;19;20022;-59
2023/09/19 08:27:49;;;;;;;13.95;3.03;;;15.50;99.90;;;;;;7366576;19;20035;-61
2023/09/19 08:30:18;;;;;;;9.02;3.42;;;15.50;99.90;;;;;;7370005;19;20034;-63
2023/09/19 08:32:46;;;;;;;12.98;3.13;;;15.80;99.90;;;;;;7370487;19;20102;-62
2023/09/19 08:35:12;;;;;;;12.25;3.13;;;16.00;99.90;;;;;;7369586;19;20015;-68
2023/09/19 08:37:39;;;;;;;7.93;3.05;;;16.40;99.90;;;;;;7369681;19;20061;-68
2023/09/19 08:40:09;;;;;;;12.45;3.28;;;16.40;99.90;;;;;;7372141;19;20025;-68
2023/09/19 08:42:55;;;;;;;14.20;3.08;;;16.50;99.90;;;;;;7367605;19;20048;-69
2023/09/19 08:45:27;;;;;;;9.75;2.75;;;16.60;99.90;;;;;;7366681;19;20057;-64
2023/09/19 08:48:17;;;;;;;11.70;3.08;;;16.80;99.90;;;;;;7369237;19;20541;-64
2023/09/19 08:51:18;;;;;;;13.02;3.33;;;17.20;99.90;;;;;;7368527;19;20025;-69
2023/09/19 08:53:54;;;;;;;13.20;3.17;;;17.30;99.90;;;;;;7367114;19;20041;-69
2023/09/19 08:56:24;;;;;;;11.45;2.92;;;17.40;99.90;;;;;;7367337;19;20030;-69
2023/09/19 08:58:54;;;;;;;13.30;3.42;;;17.40;99.90;;;;;;7368647;19;20018;-69
2023/09/19 09:01:27;;;;;;;14.35;3.38;;;17.50;99.90;;;;;;7366962;19;20074;-68
2023/09/19 09:03:56;;;;;;;16.15;3.22;;;17.60;99.90;;;;;;7369867;19;20435;-70
2023/09/19 09:06:27;;;;;;;12.15;3.33;;;17.60;99.90;;;;;;7373024;19;20029;-68
2023/09/19 09:08:54;;;;;;;14.88;3.42;;;17.70;99.90;;;;;;7366442;19;20457;-67
2023/09/19 09:11:23;;;;;;;12.38;2.95;;;17.70;99.90;;;;;;7373499;19;20045;-64
2023/09/19 09:13:49;;;;;;;11.07;3.42;;;18.00;99.90;;;;;;7371191;19;20026;-66
2023/09/19 09:16:18;;;;;;;15.55;3.65;;;18.50;99.90;;;;;;7370456;19;20089;-65
2023/09/19 09:18:46;;;;;;;13.02;2.83;;;18.60;99.90;;;;;;7365801;19;20450;-66
2023/09/19 09:21:14;;;;;;;12.48;3.40;;;19.00;99.90;;;;;;7368707;19;20464;-66
2023/09/19 09:23:40;;;;;;;13.93;3.45;;;19.10;99.90;;;;;;7367170;19;20018;-67
2023/09/19 09:26:09;;;;;;;9.20;2.55;;;19.10;99.90;;;;;;7366456;19;20094;-67
2023/09/19 09:28:38;;;;;;;10.43;3.00;;;19.40;99.90;;;;;;7364620;19;20022;-66
2023/09/19 09:31:09;;;;;;;13.68;3.58;;;19.30;99.90;;;;;;7367203;19;20354;-66
2023/09/19 09:33:36;;;;;;;12.05;3.17;;;19.20;99.90;;;;;;7367220;19;20045;-65
2023/09/19 09:36:03;;;;;;;13.13;3.08;;;19.30;99.90;;;;;;7369311;19;20070;-65
2023/09/19 09:38:43;;;;;;;13.00;3.15;;;19.30;99.90;;;;;;7367312;19;20019;-66
2023/09/19 09:41:15;;;;;;;10.68;3.08;;;19.60;99.90;;;;;;7369550;19;20382;-66
2023/09/19 09:43:46;;;;;;;11.45;3.10;;;19.50;99.90;;;;;;7365876;19;20390;-66
2023/09/19 09:51:47;;;;;;;10.98;3.28;;;19.60;99.90;;;;;;7367397;19;20466;-63
2023/09/19 09:54:15;;;;;;;14.77;5.50;;;19.90;99.90;;;;;;7365613;19;20110;-66
2023/09/19 09:57:13;;;;;;;18.13;9.43;;;20.30;99.90;;;;;;7365704;19;20019;-66
2023/09/19 09:59:58;;;;;;;14.38;5.60;;;20.60;99.90;;;;;;7366568;19;20014;-65
2023/09/19 10:02:36;;;;;;;12.93;5.25;;;20.50;99.90;;;;;;7367769;19;20529;-66
2023/09/19 10:05:28;;;;;;;16.58;9.70;;;20.80;99.90;;;;;;7367245;19;20474;-62
2023/09/19 10:08:08;;;;;;;25.70;14.23;;;20.70;99.90;;;;;;7368637;19;20040;-60
2023/09/19 10:13:12;;;;;;;11.73;3.55;;;20.90;99.90;;;;;;7371177;19;20019;-62
2023/09/19 10:16:03;;;;;;;14.95;4.07;;;21.00;99.90;;;;;;7367289;19;20035;-60
2023/09/19 10:18:32;;;;;;;;;;;20.50;99.90;;;;;;7368673;19;20022;-62
2023/09/19 10:21:01;;;;;;;12.35;3.08;;;20.60;99.90;;;;;;7363539;19;19919;-63
2023/09/19 10:23:30;;;;;;;9.55;3.00;;;20.10;99.90;;;;;;7366973;19;20019;-63
2023/09/19 10:25:58;;;;;;;12.93;4.20;;;19.70;99.90;;;;;;7360972;19;20010;-62
2023/09/19 10:28:28;;;;;;;10.27;2.72;;;20.10;99.90;;;;;;7365419;19;20397;-63
2023/09/19 10:31:01;;;;;;;14.20;4.40;;;20.10;99.90;;;;;;7358026;19;20098;-62
2023/09/19 10:33:37;;;;;;;11.80;2.35;;;20.40;99.90;;;;;;7366133;19;20018;-62
2023/09/19 10:36:05;;;;;;;9.98;3.20;;;20.80;99.90;;;;;;7362866;19;20015;-62
2023/09/19 10:38:35;;;;;;;13.93;3.80;;;20.50;99.90;;;;;;7366033;19;20019;-62
2023/09/19 10:41:04;;;;;;;11.70;2.78;;;20.10;99.90;;;;;;7365189;19;20101;-63
2023/09/19 10:43:32;;;;;;;13.60;3.25;;;19.60;99.90;;;;;;7360058;19;20358;-64
2023/09/19 10:46:09;;;;;;;11.05;3.08;;;19.50;99.90;;;;;;7364769;19;20607;-63
2023/09/19 10:48:36;;;;;;;15.02;2.97;;;19.60;99.90;;;;;;7360077;19;20023;-63
2023/09/19 10:51:09;;;;;;;13.95;3.28;;;20.00;99.90;;;;;;7365332;19;20322;-63
2023/09/19 10:53:53;;;;;;;11.13;2.63;;;20.30;99.90;;;;;;7360337;19;20018;-67
2023/09/19 10:56:49;;;;;;;26.00;19.73;;;20.50;99.90;;;;;;7367034;19;20429;-66
2023/09/19 10:59:24;;;;;;;12.50;5.68;;;20.60;99.90;;;;;;7367227;19;20025;-65
2023/09/19 11:01:52;;;;;;;13.98;4.13;;;20.20;99.90;;;;;;7365262;19;20018;-66
2023/09/19 11:04:40;;;;;;;13.95;5.07;;;20.10;99.90;;;;;;7363574;19;20043;-65
2023/09/19 11:07:14;;;;;;;12.68;4.97;;;19.80;99.90;;;;;;7369554;19;20086;-64
2023/09/19 11:09:48;;;;;;;13.10;3.13;;;20.00;99.90;;;;;;7370573;19;20341;-64
2023/09/19 11:12:35;;;;;;;11.13;3.35;;;20.30;99.90;;;;;;7374733;19;20525;-67
2023/09/19 11:15:07;;;;;;;14.38;4.00;;;20.30;99.90;;;;;;7371652;19;20385;-67
2023/09/19 11:17:34;;;;;;;12.27;3.15;;;20.90;99.90;;;;;;7368468;19;21195;-67
2023/09/19 11:22:48;;;;;;;13.73;3.25;;;20.40;99.90;;;;;;7369268;19;20098;-67
2023/09/19 11:25:42;;;;;;;16.83;10.00;;;20.10;99.90;;;;;;7368885;19;20025;-63
2023/09/19 11:28:21;;;;;;;35.78;25.83;;;19.80;99.90;;;;;;7368949;19;20123;-66
2023/09/19 11:30:55;;;;;;;13.40;5.50;;;19.90;99.90;;;;;;7369068;19;20022;-65
2023/09/19 11:33:38;;;;;;;16.65;4.20;;;20.00;99.90;;;;;;7369856;19;20502;-65
2023/09/19 11:36:07;;;;;;;12.57;4.03;;;20.40;99.90;;;;;;7368963;19;20058;-66
2023/09/19 11:38:45;;;;;;;14.57;3.88;;;20.70;99.90;;;;;;7370507;19;20047;-66
2023/09/19 11:41:25;;;;;;;13.50;3.40;;;20.50;99.90;;;;;;7368047;19;20438;-66
2023/09/19 11:44:12;;;;;;;11.10;3.50;;;20.40;99.90;;;;;;7369537;19;20498;-66
2023/09/19 11:46:51;;;;;;;13.35;3.03;;;20.10;99.90;;;;;;7369261;19;20529;-69
2023/09/19 11:49:34;;;;;;;11.18;2.90;;;19.60;99.90;;;;;;7368609;19;20429;-69
2023/09/19 11:52:08;;;;;;;10.35;2.33;;;19.70;99.90;;;;;;7374517;19;20065;-69
2023/09/19 11:54:39;;;;;;;12.80;3.55;;;19.50;99.90;;;;;;7377481;19;20058;-68
2023/09/19 11:57:06;;;;;;;;;;;19.50;99.90;;;;;;7372718;19;20032;-68
2023/09/19 11:59:33;;;;;;;15.55;3.30;;;19.30;99.90;;;;;;7372106;19;19918;-67
2023/09/19 12:02:08;;;;;;;11.70;2.83;;;19.30;99.90;;;;;;7373872;19;20018;-68
2023/09/19 12:04:39;;;;;;;13.23;2.50;;;19.20;99.90;;;;;;7373835;19;20082;-68
2023/09/19 12:07:10;;;;;;;9.57;2.20;;;19.10;99.90;;;;;;7376044;19;20025;-68
2023/09/19 12:10:01;;;;;;;15.35;3.10;;;19.20;99.90;;;;;;7374121;19;20187;-68
2023/09/19 12:12:29;;;;;;;16.75;3.58;;;19.50;99.90;;;;;;7378037;19;20894;-67
2023/09/19 12:15:03;;;;;;;11.20;2.55;;;19.40;99.90;;;;;;7376112;19;20018;-69
2023/09/19 12:17:44;;;;;;;10.38;2.70;;;19.30;99.90;;;;;;7370964;19;20022;-68
2023/09/19 12:20:13;;;;;;;10.50;2.88;;;19.10;99.90;;;;;;7374756;19;20683;-69
2023/09/19 12:22:49;;;;;;;13.40;3.08;;;19.00;99.90;;;;;;7373699;19;20464;-69
2023/09/19 12:25:21;;;;;;;10.77;2.70;;;18.90;99.90;;;;;;7374303;19;20045;-69
2023/09/19 12:27:49;;;;;;;;;;;18.80;99.90;;;;;;7369779;19;20398;-69
2023/09/19 12:30:19;;;;;;;8.18;2.40;;;18.70;99.90;;;;;;7373709;19;19914;-68
2023/09/19 12:32:47;;;;;;;10.43;2.78;;;18.50;99.90;;;;;;7373187;19;20023;-68
2023/09/19 12:35:34;;;;;;;7.50;2.60;;;18.50;99.90;;;;;;7374609;19;20018;-68
2023/09/19 12:38:03;;;;;;;12.65;2.92;;;18.50;99.90;;;;;;7372416;19;20057;-69
2023/09/19 12:40:33;;;;;;;12.85;2.67;;;18.50;99.90;;;;;;7370115;19;20439;-58
2023/09/19 12:43:02;;;;;;;7.00;2.05;;;18.60;99.90;;;;;;7375837;19;20015;-59
2023/09/19 12:45:30;;;;;;;8.23;2.17;;;18.60;99.90;;;;;;7375408;19;20597;-59
2023/09/19 12:48:29;;;;;;;9.88;2.30;;;18.60;99.90;;;;;;7373726;19;20019;-59
2023/09/19 12:51:05;;;;;;;10.90;2.78;;;18.60;99.90;;;;;;7369826;19;20019;-58
2023/09/19 12:53:58;;;;;;;9.85;2.53;;;18.60;99.90;;;;;;7373790;19;20022;-59
2023/09/19 12:56:24;;;;;;;10.90;2.40;;;18.60;99.90;;;;;;7371012;19;20014;-58
2023/09/19 12:58:50;;;;;;;9.73;3.13;;;18.60;99.90;;;;;;7373088;19;20118;-58
2023/09/19 13:01:42;;;;;;;6.15;1.75;;;18.60;99.90;;;;;;7371315;19;20027;-59
2023/09/19 13:04:20;;;;;;;8.48;2.42;;;18.60;99.90;;;;;;7374458;19;20050;-59
2023/09/19 13:06:50;;;;;;;8.77;2.60;;;18.70;99.90;;;;;;7375165;19;20015;-59
2023/09/19 13:09:20;;;;;;;12.95;2.13;;;18.70;99.90;;;;;;7373192;19;20609;-59
2023/09/19 13:11:49;;;;;;;7.72;1.95;;;18.60;99.90;;;;;;7372166;19;20018;-59
2023/09/19 13:14:24;;;;;;;10.57;2.60;;;18.50;99.90;;;;;;7372745;19;20019;-59